Time;durP1;ratioP1;P1;durP2;ratioP2;P2;SDS_P1;SDS_P2;PMS_P1;PMS_P2;Temp;Humidity;BMP_temperature;BMP_pressure;BME280_temperature;BME280_humidity;BME280_pressure;Samples;Min_cycle;Max_cycle;Signal;HPM_P1;HPM_P2
2022/01/17 00:01:51;;;;;;;6.67;1.33;;;9.40;99.90;;;;;;4848958;29;39167;-75
2022/01/17 00:04:17;;;;;;;15.77;1.73;;;9.40;99.90;;;;;;4860243;29;36164;-75
2022/01/17 00:06:44;;;;;;;7.90;1.53;;;9.30;99.90;;;;;;4851764;29;39458;-75
2022/01/17 00:09:12;;;;;;;8.17;1.50;;;9.20;99.90;;;;;;4850668;29;40254;-76
2022/01/17 00:11:43;;;;;;;10.90;1.67;;;9.00;99.90;;;;;;4851162;29;38668;-75
2022/01/17 00:14:13;;;;;;;8.00;1.60;;;9.00;99.90;;;;;;4862759;29;37589;-77
2022/01/17 00:16:44;;;;;;;18.87;2.33;;;8.90;99.90;;;;;;4860541;29;39657;-75
2022/01/17 00:21:49;;;;;;;8.97;1.47;;;8.80;99.90;;;;;;4851579;29;40396;-75
2022/01/17 00:24:18;;;;;;;8.27;1.20;;;8.80;99.90;;;;;;4852125;29;36187;-76
2022/01/17 00:26:47;;;;;;;13.40;2.20;;;8.70;99.90;;;;;;4850115;29;39596;-75
2022/01/17 00:29:13;;;;;;;8.97;1.63;;;8.60;99.90;;;;;;4846328;29;39588;-75
2022/01/17 00:31:39;;;;;;;11.03;1.53;;;8.50;99.90;;;;;;4850043;29;38334;-75
2022/01/17 00:34:05;;;;;;;9.50;1.20;;;8.50;99.90;;;;;;4853437;29;38225;-75
2022/01/17 00:36:31;;;;;;;12.13;2.00;;;8.40;99.90;;;;;;4851327;29;38906;-75
2022/01/17 00:38:57;;;;;;;11.13;1.93;;;8.30;99.90;;;;;;4850755;29;39856;-75
2022/01/17 00:41:23;;;;;;;9.33;1.50;;;8.30;99.90;;;;;;4852062;29;38687;-75
2022/01/17 00:43:50;;;;;;;17.30;1.90;;;8.30;99.90;;;;;;4864556;29;36276;-75
2022/01/17 00:46:16;;;;;;;13.27;1.90;;;8.30;99.90;;;;;;4845341;29;37921;-75
2022/01/17 00:48:42;;;;;;;13.83;1.70;;;8.20;99.90;;;;;;4848679;29;38747;-75
2022/01/17 00:51:08;;;;;;;12.50;2.10;;;8.10;99.90;;;;;;4844352;29;39376;-75
2022/01/17 00:53:37;;;;;;;14.83;1.90;;;8.00;99.90;;;;;;4843747;29;36135;-74
2022/01/17 00:56:04;;;;;;;10.30;1.83;;;8.10;99.90;;;;;;4849771;29;39810;-74
2022/01/17 00:58:30;;;;;;;19.57;2.67;;;8.00;99.90;;;;;;4849734;29;39826;-75
2022/01/17 01:00:56;;;;;;;12.17;1.90;;;7.90;99.90;;;;;;4845974;29;38483;-74
2022/01/17 01:03:23;;;;;;;11.20;1.60;;;7.80;99.90;;;;;;4849005;29;35643;-74
2022/01/17 01:05:49;;;;;;;16.30;2.10;;;7.70;99.90;;;;;;4847937;29;38696;-74
2022/01/17 01:08:15;;;;;;;13.23;1.93;;;7.80;99.90;;;;;;4849120;29;39471;-74
2022/01/17 01:10:41;;;;;;;12.27;2.63;;;7.90;99.90;;;;;;4847579;29;38036;-74
2022/01/17 01:13:07;;;;;;;13.10;3.03;;;7.80;99.90;;;;;;4856039;29;37605;-74
2022/01/17 01:18:15;;;;;;;18.17;3.57;;;7.80;99.90;;;;;;4847885;29;39461;-74
2022/01/17 01:28:44;;;;;;;12.00;2.33;;;7.60;99.90;;;;;;4849114;29;50230;-74
2022/01/17 01:31:19;;;;;;;15.33;2.23;;;7.50;99.90;;;;;;4843338;29;36788;-74
2022/01/17 01:33:52;;;;;;;18.57;2.53;;;7.50;99.90;;;;;;4844958;29;34952;-74
2022/01/17 01:36:26;;;;;;;13.07;2.60;;;7.40;99.90;;;;;;4847396;29;38809;-74
2022/01/17 01:38:52;;;;;;;12.70;1.77;;;7.50;99.90;;;;;;4851610;29;40961;-74
2022/01/17 01:41:20;;;;;;;13.67;2.83;;;7.40;99.90;;;;;;4851445;29;39074;-74
2022/01/17 01:43:46;;;;;;;10.30;1.90;;;7.40;99.90;;;;;;4848768;29;38136;-74
2022/01/17 01:46:17;;;;;;;10.93;1.67;;;7.40;99.90;;;;;;4845292;29;40435;-75
2022/01/17 01:48:43;;;;;;;9.23;3.23;;;7.30;99.90;;;;;;4857519;29;39142;-74
2022/01/17 01:51:09;;;;;;;9.63;2.30;;;7.30;99.90;;;;;;4848094;29;38412;-75
2022/01/17 01:53:37;;;;;;;16.80;2.50;;;7.30;99.90;;;;;;4843688;29;38307;-75
2022/01/17 01:56:03;;;;;;;14.57;1.90;;;7.30;99.90;;;;;;4844408;29;40608;-74
2022/01/17 01:58:29;;;;;;;10.47;2.13;;;7.30;99.90;;;;;;4849361;29;38948;-75
2022/01/17 02:00:56;;;;;;;9.93;2.20;;;7.30;99.90;;;;;;4846547;29;39336;-75
2022/01/17 02:03:23;;;;;;;13.07;2.50;;;7.20;99.90;;;;;;4849646;29;38762;-75
2022/01/17 02:05:49;;;;;;;23.27;2.70;;;7.10;99.90;;;;;;4851513;29;38475;-74
2022/01/17 02:08:16;;;;;;;11.30;2.17;;;7.10;99.90;;;;;;4849391;29;39595;-75
2022/01/17 02:10:42;;;;;;;16.37;2.33;;;7.00;99.90;;;;;;4849387;29;38490;-75
2022/01/17 02:13:09;;;;;;;12.57;2.17;;;7.00;99.90;;;;;;4849734;29;37119;-74
2022/01/17 02:15:39;;;;;;;12.30;2.23;;;7.00;99.90;;;;;;4848753;29;38801;-75
2022/01/17 02:18:07;;;;;;;19.60;2.80;;;7.00;99.90;;;;;;4859171;29;38159;-74
2022/01/17 02:20:46;;;;;;;17.37;2.30;;;7.00;99.90;;;;;;4843580;29;38474;-74
2022/01/17 02:23:17;;;;;;;12.20;2.07;;;6.90;99.90;;;;;;4854291;29;37907;-75
2022/01/17 02:25:43;;;;;;;16.50;2.37;;;6.80;99.90;;;;;;4865474;29;37765;-74
2022/01/17 02:28:09;;;;;;;19.40;2.70;;;6.70;99.90;;;;;;4848066;29;38723;-74
2022/01/17 02:30:35;;;;;;;11.93;2.20;;;6.70;99.90;;;;;;4854921;29;37466;-74
2022/01/17 02:33:02;;;;;;;16.27;2.47;;;6.70;99.90;;;;;;4839756;29;37288;-74
2022/01/17 02:35:29;;;;;;;19.10;3.33;;;6.80;99.90;;;;;;4847592;29;47498;-74
2022/01/17 02:37:56;;;;;;;23.63;4.50;;;6.70;99.90;;;;;;4859725;29;38588;-74
2022/01/17 02:40:23;;;;;;;24.20;3.80;;;6.70;99.90;;;;;;4848806;29;37269;-74
2022/01/17 02:43:00;;;;;;;26.30;3.63;;;6.80;99.90;;;;;;4853704;29;37197;-74
2022/01/17 02:48:08;;;;;;;22.03;3.93;;;6.80;99.90;;;;;;4852759;29;39087;-75
2022/01/17 02:50:36;;;;;;;22.33;3.20;;;6.80;99.90;;;;;;4860063;29;38243;-74
2022/01/17 02:53:08;;;;;;;16.07;4.20;;;6.80;99.90;;;;;;4853906;29;37892;-75
2022/01/17 02:55:34;;;;;;;20.00;3.60;;;6.90;99.90;;;;;;4851241;29;38775;-74
2022/01/17 02:58:00;;;;;;;25.07;3.70;;;6.90;99.90;;;;;;4862880;29;38493;-74
2022/01/17 03:00:27;;;;;;;25.63;3.80;;;6.90;99.90;;;;;;4852347;29;47774;-74
2022/01/17 03:02:53;;;;;;;22.67;4.20;;;7.00;99.90;;;;;;4847679;29;37089;-74
2022/01/17 03:05:20;;;;;;;27.60;4.50;;;6.90;99.90;;;;;;4858672;29;37489;-75
2022/01/17 03:07:47;;;;;;;26.67;4.47;;;6.90;99.90;;;;;;4851211;29;38944;-74
2022/01/17 03:12:46;;;;;;;24.92;4.93;;;6.90;99.90;;;;;;4845407;29;37304;-74
2022/01/17 03:15:13;;;;;;;29.13;5.13;;;6.90;99.90;;;;;;4849673;29;40602;-74
2022/01/17 03:17:40;;;;;;;25.70;4.57;;;6.90;99.90;;;;;;4853131;29;38440;-74
2022/01/17 03:20:07;;;;;;;27.60;4.93;;;6.90;99.90;;;;;;4851350;29;38077;-74
2022/01/17 03:22:33;;;;;;;26.30;4.83;;;6.90;99.90;;;;;;4862942;29;35844;-74
2022/01/17 03:24:59;;;;;;;25.40;4.57;;;6.80;99.90;;;;;;4852954;29;38691;-75
2022/01/17 03:27:25;;;;;;;17.43;5.00;;;6.80;99.90;;;;;;4859913;29;38894;-75
2022/01/17 03:29:51;;;;;;;33.60;5.73;;;6.80;99.90;;;;;;4846299;29;37962;-75
2022/01/17 03:32:17;;;;;;;25.47;6.27;;;6.80;99.90;;;;;;4852313;29;37007;-74
2022/01/17 03:34:43;;;;;;;20.43;5.40;;;6.80;99.90;;;;;;4864102;29;38251;-75
2022/01/17 03:37:10;;;;;;;26.93;7.33;;;6.80;99.90;;;;;;4861360;29;37381;-74
2022/01/17 03:39:36;;;;;;;26.37;8.80;;;6.80;99.90;;;;;;4851621;29;37344;-75
2022/01/17 03:42:02;;;;;;;26.37;8.73;;;6.80;99.90;;;;;;4849096;29;37260;-74
2022/01/17 03:44:28;;;;;;;29.17;9.93;;;6.80;99.90;;;;;;4846607;29;37784;-75
2022/01/17 03:46:54;;;;;;;21.83;9.90;;;6.90;99.90;;;;;;4849693;29;38579;-74
2022/01/17 03:49:20;;;;;;;33.13;12.13;;;6.90;99.90;;;;;;4851459;29;37574;-75
2022/01/17 03:51:46;;;;;;;28.40;11.07;;;6.90;99.90;;;;;;4845857;29;37326;-75
2022/01/17 03:54:12;;;;;;;39.47;12.63;;;6.80;99.90;;;;;;4863118;29;37768;-74
2022/01/17 03:56:38;;;;;;;37.40;12.80;;;6.80;99.90;;;;;;4851042;29;38374;-75
2022/01/17 03:59:04;;;;;;;38.87;13.20;;;6.80;99.90;;;;;;4860951;29;38518;-74
2022/01/17 04:01:30;;;;;;;38.97;14.80;;;6.80;99.90;;;;;;4843519;29;47313;-75
2022/01/17 04:03:57;;;;;;;30.53;13.30;;;6.80;99.90;;;;;;4846071;29;37731;-74
2022/01/17 04:06:24;;;;;;;39.80;17.00;;;6.80;99.90;;;;;;4849852;29;37169;-74
2022/01/17 04:08:50;;;;;;;34.10;16.27;;;6.80;99.90;;;;;;4849683;29;39474;-73
2022/01/17 04:11:16;;;;;;;35.10;14.90;;;6.80;99.90;;;;;;4850107;29;37116;-74
2022/01/17 04:13:42;;;;;;;48.17;18.03;;;6.90;99.90;;;;;;4856664;29;38749;-74
2022/01/17 04:16:11;;;;;;;39.23;17.20;;;6.90;99.90;;;;;;4844105;29;38781;-74
2022/01/17 04:18:38;;;;;;;42.43;16.57;;;6.90;99.90;;;;;;4851893;29;39286;-74
2022/01/17 04:21:04;;;;;;;41.83;17.63;;;6.90;99.90;;;;;;4847781;29;38107;-74
2022/01/17 04:23:30;;;;;;;32.40;16.77;;;6.80;99.90;;;;;;4850340;29;39192;-74
2022/01/17 04:25:57;;;;;;;42.83;16.57;;;6.80;99.90;;;;;;4850959;29;37162;-74
2022/01/17 04:28:23;;;;;;;41.37;16.87;;;6.80;99.90;;;;;;4845961;29;39165;-74
2022/01/17 04:30:49;;;;;;;48.80;18.27;;;6.70;99.90;;;;;;4850936;29;37520;-74
2022/01/17 04:33:15;;;;;;;57.60;19.63;;;6.70;99.90;;;;;;4852034;29;37409;-74
2022/01/17 04:35:43;;;;;;;44.83;16.83;;;6.70;99.90;;;;;;4849709;29;39629;-74
2022/01/17 04:38:13;;;;;;;42.40;17.70;;;6.70;99.90;;;;;;4848348;29;38658;-74
2022/01/17 04:40:40;;;;;;;46.27;17.93;;;6.60;99.90;;;;;;4849800;29;37304;-74
2022/01/17 04:43:17;;;;;;;53.43;19.47;;;6.60;99.90;;;;;;4851362;29;39946;-74
2022/01/17 04:45:43;;;;;;;50.67;19.17;;;6.70;99.90;;;;;;4849027;29;38718;-74
2022/01/17 04:48:09;;;;;;;44.07;19.67;;;6.80;99.90;;;;;;4853100;29;38548;-74
2022/01/17 04:50:36;;;;;;;42.97;21.37;;;6.80;99.90;;;;;;4851023;29;37850;-74
2022/01/17 04:53:03;;;;;;;49.27;22.47;;;6.80;99.90;;;;;;4851107;29;39825;-74
2022/01/17 04:55:29;;;;;;;45.97;22.20;;;7.00;99.90;;;;;;4850808;29;39018;-74
2022/01/17 04:57:58;;;;;;;47.97;22.57;;;7.00;99.90;;;;;;4853029;29;39488;-75
2022/01/17 05:00:26;;;;;;;59.47;24.73;;;7.10;99.90;;;;;;4849676;29;38351;-74
2022/01/17 05:02:53;;;;;;;61.03;25.53;;;7.20;99.90;;;;;;4855036;29;39287;-74
2022/01/17 05:05:19;;;;;;;56.20;27.10;;;7.30;99.90;;;;;;4851787;29;40133;-74
2022/01/17 05:07:45;;;;;;;57.83;27.70;;;7.20;99.90;;;;;;4850550;29;37128;-74
2022/01/17 05:10:14;;;;;;;54.93;27.50;;;7.20;99.90;;;;;;4852011;29;39192;-73
2022/01/17 05:12:41;;;;;;;69.97;30.17;;;7.20;99.90;;;;;;4852464;29;40063;-74
2022/01/17 05:15:18;;;;;;;60.27;29.37;;;7.20;99.90;;;;;;4848295;29;38812;-74
2022/01/17 05:17:57;;;;;;;56.80;30.07;;;7.20;99.90;;;;;;4851569;29;38738;-74
2022/01/17 05:20:24;;;;;;;73.23;31.83;;;7.20;99.90;;;;;;4857530;29;37291;-74
2022/01/17 05:22:50;;;;;;;69.93;32.10;;;7.30;99.90;;;;;;4859291;29;37852;-74
2022/01/17 05:25:17;;;;;;;54.97;32.07;;;7.40;99.90;;;;;;4857237;29;40517;-75
2022/01/17 05:27:43;;;;;;;62.77;30.57;;;7.40;99.90;;;;;;4859500;29;38904;-74
2022/01/17 05:30:13;;;;;;;69.00;33.40;;;7.50;99.90;;;;;;4846338;29;38120;-74
2022/01/17 05:32:40;;;;;;;69.73;34.43;;;7.50;99.90;;;;;;4847051;29;39063;-74
2022/01/17 05:35:07;;;;;;;66.43;33.70;;;7.50;99.90;;;;;;4840139;29;39071;-74
2022/01/17 05:37:34;;;;;;;68.63;33.50;;;7.60;99.90;;;;;;4839629;29;39073;-76
2022/01/17 05:40:00;;;;;;;54.47;33.67;;;7.70;99.90;;;;;;4869668;29;37702;-74
2022/01/17 05:42:26;;;;;;;66.70;34.70;;;7.70;99.90;;;;;;4847516;29;40165;-76
2022/01/17 05:44:54;;;;;;;67.07;33.43;;;7.70;99.90;;;;;;4848012;29;40692;-75
2022/01/17 05:47:20;;;;;;;61.97;31.67;;;7.80;99.90;;;;;;4841892;29;38423;-76
2022/01/17 05:49:46;;;;;;;63.43;33.27;;;7.80;99.90;;;;;;4845119;29;37682;-75
2022/01/17 05:52:12;;;;;;;64.03;30.97;;;7.80;99.90;;;;;;4842438;29;37378;-75
2022/01/17 05:54:40;;;;;;;53.63;31.23;;;7.80;99.90;;;;;;4844637;29;38767;-76
2022/01/17 05:57:06;;;;;;;55.47;28.67;;;7.80;99.90;;;;;;4842822;29;41134;-76
2022/01/17 05:59:32;;;;;;;56.43;30.00;;;7.80;99.90;;;;;;4860600;29;39116;-75
2022/01/17 06:01:59;;;;;;;60.50;29.60;;;7.90;99.90;;;;;;4848832;29;40099;-75
2022/01/17 06:04:25;;;;;;;58.03;27.90;;;7.90;99.90;;;;;;4852261;29;39107;-75
2022/01/17 06:06:51;;;;;;;59.20;27.67;;;7.90;99.90;;;;;;4863459;29;38572;-75
2022/01/17 06:09:18;;;;;;;49.57;25.27;;;7.90;99.90;;;;;;4851824;29;36989;-75
2022/01/17 06:11:44;;;;;;;55.03;25.53;;;7.80;99.90;;;;;;4843322;29;39507;-75
2022/01/17 06:14:17;;;;;;;50.13;25.27;;;7.80;99.90;;;;;;4845453;29;39110;-75
2022/01/17 06:16:45;;;;;;;51.23;24.27;;;7.70;99.90;;;;;;4845297;29;38593;-75
2022/01/17 06:19:11;;;;;;;47.47;24.97;;;7.70;99.90;;;;;;4842793;29;36235;-75
2022/01/17 06:21:38;;;;;;;55.23;23.93;;;7.70;99.90;;;;;;4856569;29;39723;-75
2022/01/17 06:24:06;;;;;;;52.13;23.00;;;7.70;99.90;;;;;;4844685;29;39524;-75
2022/01/17 06:26:42;;;;;;;58.50;24.30;;;7.70;99.90;;;;;;4843268;29;37297;-76
2022/01/17 06:29:13;;;;;;;54.40;22.30;;;7.60;99.90;;;;;;4852369;29;38362;-75
2022/01/17 06:31:41;;;;;;;55.77;21.87;;;7.60;99.90;;;;;;4848589;29;38935;-75
2022/01/17 06:34:07;;;;;;;47.57;22.73;;;7.60;99.90;;;;;;4851243;29;38478;-75
2022/01/17 06:36:33;;;;;;;51.00;21.60;;;7.50;99.90;;;;;;4850699;29;39639;-75
2022/01/17 06:39:00;;;;;;;41.43;21.07;;;7.50;99.90;;;;;;4849317;29;38445;-76
2022/01/17 06:41:26;;;;;;;44.53;21.07;;;7.50;99.90;;;;;;4847769;29;39852;-75
2022/01/17 06:43:52;;;;;;;53.30;19.67;;;7.40;99.90;;;;;;4845186;29;38934;-75
2022/01/17 06:46:20;;;;;;;47.33;19.60;;;7.40;99.90;;;;;;4850351;29;20472;-75
2022/01/17 06:48:46;;;;;;;44.93;19.57;;;7.40;99.90;;;;;;4849168;29;40640;-75
2022/01/17 06:51:14;;;;;;;53.80;20.40;;;7.40;99.90;;;;;;4845234;29;38949;-75
2022/01/17 06:53:41;;;;;;;48.00;19.33;;;7.30;99.90;;;;;;4848277;29;39790;-75
2022/01/17 06:56:08;;;;;;;40.10;16.73;;;7.30;99.90;;;;;;4848394;29;38960;-75
2022/01/17 06:58:35;;;;;;;41.90;17.57;;;7.30;99.90;;;;;;4848610;29;38781;-75
2022/01/17 07:01:04;;;;;;;47.20;18.03;;;7.30;99.90;;;;;;4852439;29;39717;-76
2022/01/17 07:03:31;;;;;;;55.63;19.10;;;7.40;99.90;;;;;;4848536;29;39914;-75
2022/01/17 07:05:58;;;;;;;49.77;17.30;;;7.40;99.90;;;;;;4848002;29;39188;-75
2022/01/17 07:08:24;;;;;;;43.07;15.40;;;7.40;99.90;;;;;;4860896;29;37002;-76
2022/01/17 07:10:50;;;;;;;49.63;15.30;;;7.40;99.90;;;;;;4850680;29;38959;-76
2022/01/17 07:13:16;;;;;;;46.03;15.00;;;7.40;99.90;;;;;;4847901;29;37715;-76
2022/01/17 07:15:42;;;;;;;39.33;14.70;;;7.40;99.90;;;;;;4851341;29;38131;-76
2022/01/17 07:18:09;;;;;;;36.90;13.90;;;7.50;99.90;;;;;;4852856;29;37535;-76
2022/01/17 07:20:35;;;;;;;40.20;14.37;;;7.50;99.90;;;;;;4856384;29;39354;-76
2022/01/17 07:23:01;;;;;;;41.37;13.87;;;7.40;99.90;;;;;;4850798;29;40405;-76
2022/01/17 07:25:27;;;;;;;33.40;11.80;;;7.40;99.90;;;;;;4854817;29;39329;-75
2022/01/17 07:27:55;;;;;;;35.70;11.53;;;7.30;99.90;;;;;;4853371;29;37674;-75
2022/01/17 07:30:22;;;;;;;42.57;10.60;;;7.40;99.90;;;;;;4850488;29;38696;-76
2022/01/17 07:32:48;;;;;;;31.00;10.50;;;7.40;99.90;;;;;;4849370;29;37389;-76
2022/01/17 07:35:14;;;;;;;38.53;10.37;;;7.40;99.90;;;;;;4856047;29;38594;-75
2022/01/17 07:37:40;;;;;;;35.30;9.90;;;7.40;99.90;;;;;;4870760;29;36623;-76
2022/01/17 07:40:08;;;;;;;38.27;8.83;;;7.30;99.90;;;;;;4851879;29;39307;-76
2022/01/17 07:42:35;;;;;;;32.57;8.13;;;7.20;99.90;;;;;;4852855;29;39143;-75
2022/01/17 07:45:09;;;;;;;26.03;8.30;;;7.20;99.90;;;;;;4856756;29;38508;-76
2022/01/17 07:47:44;;;;;;;32.93;8.07;;;7.10;99.90;;;;;;4851561;29;47499;-75
2022/01/17 07:50:19;;;;;;;30.13;7.67;;;7.00;99.90;;;;;;4854769;29;37891;-76
2022/01/17 07:52:46;;;;;;;32.33;7.27;;;7.00;99.90;;;;;;4850844;29;39861;-76
2022/01/17 07:55:12;;;;;;;30.87;7.40;;;7.00;99.90;;;;;;4852679;29;38139;-75
2022/01/17 07:57:41;;;;;;;27.50;6.77;;;7.00;99.90;;;;;;4855828;29;37760;-76
2022/01/17 08:00:10;;;;;;;28.73;6.47;;;7.10;99.90;;;;;;4853762;29;37644;-76
2022/01/17 08:02:37;;;;;;;36.73;9.17;;;7.30;99.90;;;;;;4850913;29;37700;-76
2022/01/17 08:05:04;;;;;;;24.03;6.70;;;7.40;99.90;;;;;;4860640;29;38592;-76
2022/01/17 08:07:30;;;;;;;29.53;6.73;;;7.50;99.90;;;;;;4852239;29;47090;-74
2022/01/17 08:09:57;;;;;;;30.23;7.13;;;7.60;99.90;;;;;;4854716;29;38705;-75
2022/01/17 08:12:23;;;;;;;25.17;5.83;;;7.70;99.90;;;;;;4851643;29;38919;-76
2022/01/17 08:14:49;;;;;;;32.97;5.07;;;7.80;99.90;;;;;;4855114;29;38878;-75
2022/01/17 08:17:15;;;;;;;32.30;6.37;;;7.80;99.90;;;;;;4848755;29;37695;-75
2022/01/17 08:19:41;;;;;;;28.17;6.83;;;7.90;99.90;;;;;;4855301;29;40148;-75
2022/01/17 08:22:08;;;;;;;29.73;8.27;;;7.90;99.90;;;;;;4846640;29;38812;-74
2022/01/17 08:24:35;;;;;;;32.67;6.70;;;7.90;99.90;;;;;;4849787;29;37163;-74
2022/01/17 08:27:03;;;;;;;38.00;6.27;;;8.00;99.90;;;;;;4855926;29;37143;-74
2022/01/17 08:29:29;;;;;;;29.47;6.83;;;8.00;99.90;;;;;;4849154;29;40542;-75
2022/01/17 08:31:57;;;;;;;41.07;7.90;;;8.00;99.90;;;;;;4851344;29;37703;-74
2022/01/17 08:34:23;;;;;;;28.83;5.97;;;8.10;99.90;;;;;;4859624;29;38299;-74
2022/01/17 08:36:49;;;;;;;30.03;6.97;;;8.10;99.90;;;;;;4852146;29;37938;-75
2022/01/17 08:39:16;;;;;;;28.83;6.60;;;8.10;99.90;;;;;;4867159;29;38552;-74
2022/01/17 08:41:42;;;;;;;32.97;6.90;;;8.10;99.90;;;;;;4854146;29;39320;-75
2022/01/17 08:44:12;;;;;;;30.60;6.20;;;8.20;99.90;;;;;;4853848;29;39055;-74
2022/01/17 08:46:40;;;;;;;33.40;6.67;;;8.20;99.90;;;;;;4850387;29;37282;-74
2022/01/17 08:49:06;;;;;;;37.73;6.90;;;8.20;99.90;;;;;;4852037;29;37608;-74
2022/01/17 08:51:32;;;;;;;37.17;5.97;;;8.30;99.90;;;;;;4849368;29;37788;-74
2022/01/17 08:53:58;;;;;;;32.37;6.10;;;8.30;99.90;;;;;;4852163;29;38237;-74
2022/01/17 08:56:27;;;;;;;32.73;5.53;;;8.40;99.90;;;;;;4844979;29;36802;-74
2022/01/17 08:58:54;;;;;;;31.67;6.03;;;8.40;99.90;;;;;;4850054;29;40015;-74
2022/01/17 09:01:20;;;;;;;42.57;6.87;;;8.40;99.90;;;;;;4848974;29;39378;-74
2022/01/17 09:03:47;;;;;;;32.93;5.77;;;8.40;99.90;;;;;;4854769;29;38556;-74
2022/01/17 09:06:13;;;;;;;34.40;6.27;;;8.50;99.90;;;;;;4854701;29;38715;-74
2022/01/17 09:08:40;;;;;;;29.60;5.60;;;8.50;99.90;;;;;;4853318;29;38029;-74
2022/01/17 09:11:07;;;;;;;38.50;6.73;;;8.50;99.90;;;;;;4849770;29;38592;-74
2022/01/17 09:13:33;;;;;;;24.97;4.93;;;8.60;99.90;;;;;;4853491;29;39597;-74
2022/01/17 09:15:59;;;;;;;29.17;5.83;;;8.70;99.90;;;;;;4852202;29;36857;-75
2022/01/17 09:18:25;;;;;;;26.37;6.90;;;8.80;99.90;;;;;;4852465;29;39255;-74
2022/01/17 09:20:52;;;;;;;28.33;6.87;;;8.80;99.90;;;;;;4851439;29;39488;-74
2022/01/17 09:23:18;;;;;;;21.53;6.10;;;8.80;99.90;;;;;;4851487;29;38904;-74
2022/01/17 09:25:44;;;;;;;25.67;6.40;;;8.90;99.90;;;;;;4850049;29;37250;-74
2022/01/17 09:28:11;;;;;;;30.00;5.63;;;9.00;99.90;;;;;;4848893;29;38963;-74
2022/01/17 09:30:37;;;;;;;35.57;6.37;;;9.10;99.90;;;;;;4851878;29;39300;-75
2022/01/17 09:33:05;;;;;;;29.33;5.23;;;9.10;99.90;;;;;;4846591;29;38679;-75
2022/01/17 09:35:33;;;;;;;35.67;5.23;;;9.20;99.90;;;;;;4851478;29;37795;-74
2022/01/17 09:38:00;;;;;;;35.70;6.83;;;9.20;99.90;;;;;;4865157;29;39319;-74
2022/01/17 09:40:27;;;;;;;33.13;4.67;;;9.30;99.90;;;;;;4848482;29;40103;-74
2022/01/17 09:42:54;;;;;;;25.90;4.70;;;9.30;99.90;;;;;;4851329;29;38421;-74
2022/01/17 09:45:23;;;;;;;29.80;4.53;;;9.30;99.90;;;;;;4853808;29;37420;-74
2022/01/17 09:47:49;;;;;;;22.27;3.80;;;9.40;99.90;;;;;;4852288;29;40723;-74
2022/01/17 09:50:20;;;;;;;30.97;4.70;;;9.50;99.90;;;;;;4848276;29;39913;-74
2022/01/17 09:52:52;;;;;;;30.43;5.03;;;9.40;99.90;;;;;;4854539;29;39166;-75
2022/01/17 09:55:22;;;;;;;24.67;5.05;;;9.40;99.90;;;;;;4853502;29;37346;-74
2022/01/17 09:57:52;;;;;;;29.80;4.73;;;9.40;99.90;;;;;;4855388;29;38471;-74
2022/01/17 10:00:25;;;;;;;30.00;4.90;;;9.40;99.90;;;;;;4852913;29;39051;-74
2022/01/17 10:02:56;;;;;;;31.58;5.13;;;9.40;99.90;;;;;;4854369;29;38432;-74
2022/01/17 10:05:24;;;;;;;34.67;6.17;;;9.50;99.90;;;;;;4848128;29;37255;-74
2022/01/17 10:07:53;;;;;;;24.97;4.00;;;9.50;99.90;;;;;;4858387;29;39112;-74
2022/01/17 10:10:39;;;;;;;33.33;4.90;;;9.50;99.90;;;;;;4872570;29;37627;-74
2022/01/17 10:13:08;;;;;;;31.33;5.27;;;9.70;99.90;;;;;;4844453;29;38743;-75
2022/01/17 10:15:46;;;;;;;22.30;4.70;;;9.80;99.90;;;;;;4865551;29;35794;-74
2022/01/17 10:18:41;;;;;;;22.90;3.87;;;10.00;99.90;;;;;;4847972;29;39037;-74
2022/01/17 10:21:17;;;;;;;28.50;5.33;;;10.00;99.90;;;;;;4854698;29;39345;-74
2022/01/17 10:35:08;;;;;;;29.00;4.80;;;9.90;99.90;;;;;;4849537;29;38994;-74
2022/01/17 10:37:34;;;;;;;22.00;4.07;;;10.00;99.90;;;;;;4852914;29;48746;-74
2022/01/17 10:40:07;;;;;;;38.47;5.53;;;10.00;99.90;;;;;;4849900;29;37840;-74
2022/01/17 10:42:39;;;;;;;22.50;3.97;;;10.10;99.90;;;;;;4862234;29;47426;-75
2022/01/17 10:45:09;;;;;;;36.33;5.63;;;10.00;99.90;;;;;;4852475;29;37351;-75
2022/01/17 10:47:39;;;;;;;26.03;4.10;;;10.10;99.90;;;;;;4850744;29;37683;-74
2022/01/17 10:50:15;;;;;;;35.23;5.40;;;10.10;99.90;;;;;;4848341;29;37887;-74
2022/01/17 10:52:44;;;;;;;45.27;6.20;;;10.10;99.90;;;;;;4854009;29;37548;-75
2022/01/17 10:55:14;;;;;;;22.90;4.37;;;10.20;99.90;;;;;;4851261;29;37646;-75
2022/01/17 10:57:43;;;;;;;29.67;4.17;;;10.20;99.90;;;;;;4854795;29;37252;-74
2022/01/17 11:00:16;;;;;;;24.60;4.57;;;10.20;99.90;;;;;;4847771;29;37895;-75
2022/01/17 11:02:47;;;;;;;23.90;4.47;;;10.10;99.90;;;;;;4850835;29;38354;-75
2022/01/17 11:05:14;;;;;;;29.37;4.50;;;10.20;99.90;;;;;;4858843;29;38748;-72
2022/01/17 11:07:43;;;;;;;26.73;4.20;;;10.30;99.90;;;;;;4869439;29;36403;-73
2022/01/17 11:10:18;;;;;;;33.70;4.87;;;10.30;99.90;;;;;;4858546;29;38799;-73
2022/01/17 11:12:45;;;;;;;28.50;4.40;;;10.30;99.90;;;;;;4852279;29;38690;-73
2022/01/17 11:15:13;;;;;;;31.67;5.40;;;10.30;99.90;;;;;;4857004;29;37319;-75
2022/01/17 11:17:47;;;;;;;29.50;5.80;;;10.40;99.90;;;;;;4869997;29;37359;-74
2022/01/17 11:20:14;;;;;;;32.03;6.50;;;10.30;99.90;;;;;;4848620;29;38893;-75
2022/01/17 11:22:42;;;;;;;37.80;5.57;;;10.30;99.90;;;;;;4854300;29;39381;-76
2022/01/17 11:25:18;;;;;;;25.50;4.13;;;10.30;99.90;;;;;;4856207;29;38719;-74
2022/01/17 11:27:44;;;;;;;26.67;5.17;;;10.40;99.90;;;;;;4851171;29;36647;-74
2022/01/17 11:30:12;;;;;;;30.97;4.30;;;10.40;99.90;;;;;;4851311;29;38503;-74
2022/01/17 11:32:39;;;;;;;33.97;5.13;;;10.50;99.90;;;;;;4850896;29;39495;-73
2022/01/17 11:35:06;;;;;;;33.93;4.83;;;10.50;99.90;;;;;;4853286;29;37461;-74
2022/01/17 11:37:39;;;;;;;21.83;4.10;;;10.50;99.90;;;;;;4853590;29;36202;-74
2022/01/17 11:40:07;;;;;;;26.17;4.40;;;10.60;99.90;;;;;;4863856;29;37498;-73
2022/01/17 11:42:39;;;;;;;31.10;5.43;;;10.60;99.90;;;;;;4852816;29;38375;-74
2022/01/17 11:45:23;;;;;;;28.87;5.60;;;10.60;99.90;;;;;;4850551;29;38939;-74
2022/01/17 11:47:55;;;;;;;22.33;4.23;;;10.60;99.90;;;;;;4850597;29;38206;-74
2022/01/17 11:50:27;;;;;;;28.27;4.72;;;10.70;99.90;;;;;;4849358;29;38852;-73
2022/01/17 11:52:55;;;;;;;30.00;4.63;;;10.70;99.90;;;;;;4853570;29;38710;-73
2022/01/17 11:55:42;;;;;;;29.13;4.47;;;10.90;99.90;;;;;;4859777;29;38857;-74
2022/01/17 11:58:24;;;;;;;24.57;4.27;;;11.00;99.90;;;;;;4864933;29;36261;-73
2022/01/17 12:00:59;;;;;;;24.53;4.03;;;11.00;99.90;;;;;;4850500;29;39301;-73
2022/01/17 12:03:31;;;;;;;23.13;4.30;;;11.10;99.90;;;;;;4847393;29;38999;-73
2022/01/17 12:06:05;;;;;;;23.90;4.37;;;11.10;99.90;;;;;;4843901;29;40202;-73
2022/01/17 12:08:31;;;;;;;26.67;4.33;;;11.20;99.90;;;;;;4845823;29;47072;-72
2022/01/17 12:10:59;;;;;;;19.43;3.33;;;11.30;99.90;;;;;;4848374;29;40458;-72
2022/01/17 12:13:45;;;;;;;24.73;4.37;;;11.30;99.90;;;;;;4849971;29;38726;-71
2022/01/17 12:16:29;;;;;;;25.80;3.93;;;11.30;99.90;;;;;;4845883;29;38761;-73
2022/01/17 12:19:03;;;;;;;28.43;4.57;;;11.50;99.90;;;;;;4861215;29;36135;-73
2022/01/17 12:21:53;;;;;;;26.40;3.70;;;11.50;99.90;;;;;;4842303;29;49048;-73
2022/01/17 12:24:24;;;;;;;23.40;3.53;;;11.40;99.90;;;;;;4844658;29;38944;-72
2022/01/17 12:26:57;;;;;;;17.77;3.67;;;11.50;99.90;;;;;;4859644;29;39984;-73
2022/01/17 12:29:47;;;;;;;22.70;3.67;;;11.40;99.90;;;;;;4848489;29;38195;-73
2022/01/17 12:32:23;;;;;;;24.23;3.90;;;11.50;99.90;;;;;;4857826;29;38825;-72
2022/01/17 12:34:52;;;;;;;24.97;3.33;;;11.40;99.90;;;;;;4845625;29;38816;-73
2022/01/17 12:37:45;;;;;;;20.00;3.80;;;11.30;99.90;;;;;;4846445;29;38057;-74
2022/01/17 12:40:14;;;;;;;18.03;3.60;;;11.30;99.90;;;;;;4845613;29;36271;-73
2022/01/17 12:42:54;;;;;;;28.30;3.90;;;11.30;99.90;;;;;;4848340;29;37816;-72
2022/01/17 12:45:31;;;;;;;24.13;4.40;;;11.50;99.90;;;;;;4843726;29;37638;-72
2022/01/17 12:48:01;;;;;;;24.10;4.37;;;11.50;99.90;;;;;;4844079;29;38251;-72
2022/01/17 12:50:28;;;;;;;23.60;3.47;;;11.60;99.90;;;;;;4844332;29;47510;-73
2022/01/17 12:52:59;;;;;;;23.30;4.10;;;11.50;99.90;;;;;;4842126;29;39003;-73
2022/01/17 12:55:39;;;;;;;28.23;4.27;;;11.40;99.90;;;;;;4846238;29;38274;-72
2022/01/17 12:58:21;;;;;;;19.43;3.50;;;11.30;99.90;;;;;;4843807;29;38261;-75
2022/01/17 13:00:47;;;;;;;26.35;3.53;;;11.30;99.90;;;;;;4842962;29;37479;-73
2022/01/17 13:03:15;;;;;;;23.23;2.97;;;11.30;99.90;;;;;;4844324;29;39355;-73
2022/01/17 13:05:42;;;;;;;23.00;4.37;;;11.20;99.90;;;;;;4840635;29;39561;-73
2022/01/17 13:08:08;;;;;;;20.30;3.00;;;11.00;99.90;;;;;;4841920;29;39153;-73
2022/01/17 13:10:34;;;;;;;26.77;3.37;;;11.00;99.90;;;;;;4845627;29;37712;-73
2022/01/17 13:13:02;;;;;;;25.40;4.07;;;11.00;99.90;;;;;;4842618;29;39499;-74
2022/01/17 13:15:28;;;;;;;18.30;3.13;;;10.90;99.90;;;;;;4843478;29;46419;-73
2022/01/17 13:17:54;;;;;;;18.87;3.23;;;10.90;99.90;;;;;;4847925;29;38524;-73
2022/01/17 13:20:22;;;;;;;21.07;3.13;;;10.90;99.90;;;;;;4847251;29;37263;-74